Meita Maru — YJQE8 — position and weather

sailwx.info

Track history (hours):
 
Tides and Currents Weather Stations Pressure Air Temp Water Temp Dewpoint Dewpoint Depression Visibility Wind Speed Wind Dir Waves Ship Positions

Meita Maru

Last reported at 2015-Aug-18 08:25 UTC. Time now 2015-Aug-29 06:14 UTC.
Position S 32°48' E 152°45'.
Warning: this ship's position is 10 days out of date.

Length 106 m; draft 6.1 m.

Type: Cargo ship. MMSI: 576419000.

Date/timePositionNaut miles runAvg speedWind from/ knotsBaromVisibWave heightAir tempDewpointWater temp
2015-Aug-18 08:25S 32°48' E 152°45'29713.4
2015-Aug-17 10:15S 37°19' E 150°17'2514.4
2015-Aug-17 08:32S 37°41' E 150°00'1515.1
2015-Aug-17 07:33S 37°50' E 149°46'4914.3
2015-Aug-17 04:09S 38°20' E 148°57'9113.7
2015-Aug-16 21:30S 39°02' E 147°14'1415.0
2015-Aug-16 20:34S 39°08' E 146°58'1515.2
2015-Aug-16 19:34S 39°14' E 146°40'1514.6
2015-Aug-16 18:33S 39°17' E 146°21'1514.7
2015-Aug-16 17:34S 39°16' E 146°02'1414.3
2015-Aug-16 16:34S 39°14' E 145°44'14514.5
2015-Aug-16 06:33S 38°49' E 142°41'1414.3
2015-Aug-16 05:33S 38°45' E 142°23'1514.4
2015-Aug-16 04:33S 38°40' E 142°06'1414.4
2015-Aug-16 03:33S 38°35' E 141°48'1414.4
2015-Aug-16 02:33S 38°30' E 141°31'  
Track history (hours):
 
Tides and Currents Weather Stations Pressure Air Temp Water Temp Dewpoint Dewpoint Depression Visibility Wind Speed Wind Dir Waves Ship Positions

Meita Maru

Last reported at 2015-Aug-18 08:25 UTC. Time now 2015-Aug-29 06:14 UTC.
Position S 32°48' E 152°45'.
Warning: this ship's position is 10 days out of date.

Length 106 m; draft 6.1 m.

Type: Cargo ship. MMSI: 576419000.

Date/timePositionNaut miles runAvg speedWind from/ knotsBaromVisibWave heightAir tempDewpointWater temp
2015-Aug-18 08:25S 32°48' E 152°45'29713.4
2015-Aug-17 10:15S 37°19' E 150°17'2514.4
2015-Aug-17 08:32S 37°41' E 150°00'1515.1
2015-Aug-17 07:33S 37°50' E 149°46'4914.3
2015-Aug-17 04:09S 38°20' E 148°57'9113.7
2015-Aug-16 21:30S 39°02' E 147°14'1415.0
2015-Aug-16 20:34S 39°08' E 146°58'1515.2
2015-Aug-16 19:34S 39°14' E 146°40'1514.6
2015-Aug-16 18:33S 39°17' E 146°21'1514.7
2015-Aug-16 17:34S 39°16' E 146°02'1414.3
2015-Aug-16 16:34S 39°14' E 145°44'14514.5
2015-Aug-16 06:33S 38°49' E 142°41'1414.3
2015-Aug-16 05:33S 38°45' E 142°23'1514.4
2015-Aug-16 04:33S 38°40' E 142°06'1414.4
2015-Aug-16 03:33S 38°35' E 141°48'1414.4
2015-Aug-16 02:33S 38°30' E 141°31'  

Dump ship's entire track history